Wind Star — C6CA9 — position and weather

sailwx.info

Track history (hours):
 
Tides and Currents Weather Stations Pressure Air Temp Water Temp Dewpoint Dewpoint Depression Visibility Wind Speed Wind Dir Waves Ship Positions

Wind Star

Operator: Holland America Line

Last reported at 2019-Jun-16 14:03 UTC. Time now 2019-Jun-16 15:02 UTC.
Position N 37°34' E 022°47'.

Length 134 m; draft 4.1 m.

Type: Ship. MMSI: 309163000.

Date/timePositionNaut miles runAvg speedWind from/ knotsBaromVisibWave heightAir tempDewpointWater temp
2019-Jun-16 14:03N 37°34' E 022°47'1 0.1
2019-Jun-16 04:17N 37°34' E 022°48'0 1.4
2019-Jun-16 03:59N 37°34' E 022°48'5 5.2
2019-Jun-16 02:59N 37°29' E 022°50'14 7.3
2019-Jun-16 01:06N 37°17' E 022°58'1 7.4
2019-Jun-16 00:56N 37°16' E 022°59'5 7.1
2019-Jun-16 00:16N 37°12' E 023°02'3 7.3
2019-Jun-15 23:52N 37°10' E 023°04'2 6.5
2019-Jun-15 23:30N 37°08' E 023°06'4 7.2
2019-Jun-15 23:00N 37°08' E 023°11'8 7.4
2019-Jun-15 21:59N 37°09' E 023°20'4 7.5
2019-Jun-15 21:25N 37°09' E 023°26'15 7.9
2019-Jun-15 19:32N 37°18' E 023°40'16 8.5
2019-Jun-15 17:42N 37°34' E 023°43'2 8.9
2019-Jun-15 17:30N 37°36' E 023°43'4 8.3
2019-Jun-15 17:00N 37°40' E 023°42'4 8.1
2019-Jun-15 16:30N 37°44' E 023°40'4 8.2
2019-Jun-15 16:00N 37°47' E 023°38'4 8.7
2019-Jun-15 15:30N 37°51' E 023°36'5 9.0
2019-Jun-15 15:00N 37°56' E 023°37'1 2.3
2019-Jun-15 14:29N 37°56' E 023°38'0 0.0
2019-Jun-15 13:59N 37°56' E 023°38'0 0.0
2019-Jun-15 13:29N 37°56' E 023°38'0 0.0
2019-Jun-15 12:59N 37°56' E 023°38'0 0.0
2019-Jun-15 12:26N 37°56' E 023°38'0 0.0
2019-Jun-15 11:59N 37°56' E 023°38'0 0.0
2019-Jun-15 11:29N 37°56' E 023°38'0 0.0
2019-Jun-15 10:59N 37°56' E 023°38'0 0.0
2019-Jun-15 10:29N 37°56' E 023°38'0 0.0
2019-Jun-15 09:59N 37°56' E 023°38'0 0.0
2019-Jun-15 09:29N 37°56' E 023°38'0 0.0
2019-Jun-15 08:56N 37°56' E 023°38'0 0.0
2019-Jun-15 08:29N 37°56' E 023°38'0 0.0
2019-Jun-15 07:59N 37°56' E 023°38'0 0.0
2019-Jun-15 07:23N 37°56' E 023°38'0 0.0
2019-Jun-15 06:59N 37°56' E 023°38'0 0.0
2019-Jun-15 06:30N 37°56' E 023°38'0 0.0
2019-Jun-15 06:00N 37°56' E 023°38'0 0.0
2019-Jun-15 05:30N 37°56' E 023°38'0 0.0
2019-Jun-15 05:00N 37°56' E 023°38'0 0.0
2019-Jun-15 04:30N 37°56' E 023°38'0 0.0
2019-Jun-15 04:00N 37°56' E 023°38'0 0.2
2019-Jun-15 03:31N 37°56' E 023°38'2 4.0
2019-Jun-15 03:00N 37°55' E 023°36'1 1.8
2019-Jun-15 02:30N 37°54' E 023°37'3 6.3
2019-Jun-15 02:00N 37°52' E 023°39'3 6.4
2019-Jun-15 01:30N 37°49' E 023°40'3 6.6
2019-Jun-15 01:00N 37°46' E 023°42'3 6.4
2019-Jun-15 00:30N 37°43' E 023°44'3 6.6
2019-Jun-15 00:00N 37°40' E 023°45'4 6.9
2019-Jun-14 23:29N 37°36' E 023°46'4 7.5
2019-Jun-14 23:00N 37°33' E 023°46'4 7.8
2019-Jun-14 22:30N 37°29' E 023°47'8 7.0
2019-Jun-14 21:22N 37°21' E 023°43'4 7.2
2019-Jun-14 20:52N 37°18' E 023°40'  
2019-Jun-10 17:45N 37°40' E 025°47'2 9.2
2019-Jun-10 17:30N 37°39' E 025°44'4 9.0
2019-Jun-10 17:00N 37°38' E 025°38'5 9.0
2019-Jun-10 16:30N 37°37' E 025°33'4 8.7
2019-Jun-10 16:00N 37°36' E 025°28'4 8.1
2019-Jun-10 15:30N 37°34' E 025°23'4 7.5
2019-Jun-10 15:00N 37°32' E 025°19'3 6.1
2019-Jun-10 14:30N 37°29' E 025°17'2 4.4
2019-Jun-10 13:58N 37°27' E 025°19'0 0.1
2019-Jun-10 13:28N 37°27' E 025°19'0 0.0
2019-Jun-10 12:58N 37°27' E 025°19'0 0.0
2019-Jun-10 12:28N 37°27' E 025°19'0 0.0
2019-Jun-10 11:58N 37°27' E 025°19'0 0.0
2019-Jun-10 11:28N 37°27' E 025°19'0 0.0
2019-Jun-10 10:55N 37°27' E 025°19'0 0.0
2019-Jun-10 10:28N 37°27' E 025°19'0 0.0
2019-Jun-10 09:58N 37°27' E 025°19'0 0.0
2019-Jun-10 09:28N 37°27' E 025°19'0 0.0
2019-Jun-10 08:58N 37°27' E 025°19'0 0.1
2019-Jun-10 08:28N 37°27' E 025°19'0 0.0
2019-Jun-10 07:58N 37°27' E 025°19'0 0.0
2019-Jun-10 07:28N 37°27' E 025°19'0 0.1
2019-Jun-10 06:55N 37°27' E 025°19'0 0.0
2019-Jun-10 06:25N 37°27' E 025°19'0 0.0
2019-Jun-10 05:58N 37°27' E 025°19'0 0.0
2019-Jun-10 05:28N 37°27' E 025°19'0 0.1
2019-Jun-10 04:58N 37°27' E 025°19'0 0.2
2019-Jun-10 04:30N 37°27' E 025°19'3 6.7
2019-Jun-10 04:00N 37°27' E 025°15'4 8.7
2019-Jun-10 03:30N 37°27' E 025°10'4 8.3
2019-Jun-10 03:00N 37°25' E 025°05'4 8.2
2019-Jun-10 02:30N 37°22' E 025°01'4 7.6
2019-Jun-10 02:00N 37°20' E 024°57'4 7.8
2019-Jun-10 01:30N 37°19' E 024°52'4 8.8
2019-Jun-10 01:00N 37°18' E 024°47'48 8.7
2019-Jun-09 19:27N 37°11' E 023°47'1810.4
2019-Jun-09 17:43N 37°10' E 023°24'811.3
2019-Jun-09 16:59N 37°10' E 023°14'1311.4
2019-Jun-09 15:52N 37°16' E 022°59'1610.2
2019-Jun-09 14:20N 37°29' E 022°50'510.4
2019-Jun-09 13:50N 37°34' E 022°47'0 0.1
2019-Jun-09 13:30N 37°34' E 022°47'0 0.0
2019-Jun-09 12:55N 37°34' E 022°47'0 0.0
2019-Jun-09 12:25N 37°34' E 022°47'0 0.0
2019-Jun-09 12:00N 37°34' E 022°47'0 0.0
2019-Jun-09 11:28N 37°34' E 022°47'0 0.1
2019-Jun-09 11:00N 37°34' E 022°47'0 0.0
2019-Jun-09 10:30N 37°34' E 022°47'0 0.0
2019-Jun-09 10:00N 37°34' E 022°47'0 0.0
2019-Jun-09 09:29N 37°34' E 022°47'0 0.0
2019-Jun-09 09:00N 37°34' E 022°47'0 0.0
2019-Jun-09 08:28N 37°34' E 022°47'0 0.0
2019-Jun-09 08:00N 37°34' E 022°47'0 0.0
2019-Jun-09 07:30N 37°34' E 022°47'0 0.0
2019-Jun-09 07:00N 37°34' E 022°47'0 0.0
2019-Jun-09 06:12N 37°34' E 022°47'0 0.0
2019-Jun-09 06:00N 37°34' E 022°47'0 0.0
2019-Jun-09 05:29N 37°34' E 022°47'0 0.0
2019-Jun-09 05:00N 37°34' E 022°47'5 2.8
2019-Jun-09 03:11N 37°29' E 022°50'14 6.7
2019-Jun-09 01:06N 37°17' E 022°58'1 6.6
2019-Jun-09 00:58N 37°16' E 022°59'3 6.7
2019-Jun-09 00:27N 37°13' E 023°01'5 6.6
2019-Jun-08 23:46N 37°09' E 023°04'2 6.0
2019-Jun-08 23:23N 37°08' E 023°06'3 6.7
2019-Jun-08 22:57N 37°08' E 023°10'3 7.3
2019-Jun-08 22:30N 37°09' E 023°14'5 7.6
2019-Jun-08 21:49N 37°09' E 023°20'2 7.5
2019-Jun-08 21:30N 37°09' E 023°23'6 7.6
2019-Jun-08 20:46N 37°10' E 023°30'11 7.1
2019-Jun-08 19:14N 37°18' E 023°40'3 7.3
2019-Jun-08 18:50N 37°20' E 023°42'8 7.6
2019-Jun-08 17:49N 37°28' E 023°42'2 7.7
2019-Jun-08 17:30N 37°30' E 023°43'4 7.8
2019-Jun-08 16:59N 37°34' E 023°43'4 8.9
2019-Jun-08 16:30N 37°39' E 023°43'4 8.9
2019-Jun-08 16:00N 37°43' E 023°41'4 8.8
2019-Jun-08 15:30N 37°47' E 023°38'4 8.9
2019-Jun-08 15:00N 37°51' E 023°37'4 8.5
2019-Jun-08 14:30N 37°55' E 023°36'2 4.0
2019-Jun-08 14:00N 37°56' E 023°38'0 0.0
2019-Jun-08 13:27N 37°56' E 023°38'0 0.0
2019-Jun-08 13:00N 37°56' E 023°38'0 0.0
2019-Jun-08 12:27N 37°56' E 023°38'0 0.0
2019-Jun-08 11:57N 37°56' E 023°38'0 0.0
2019-Jun-08 11:27N 37°56' E 023°38'0 0.0
2019-Jun-08 11:00N 37°56' E 023°38'0 0.0
2019-Jun-08 10:30N 37°56' E 023°38'0 0.0
2019-Jun-08 10:00N 37°56' E 023°38'0 0.0
2019-Jun-08 09:30N 37°56' E 023°38'0 0.0
2019-Jun-08 08:57N 37°56' E 023°38'0 0.0
2019-Jun-08 08:30N 37°56' E 023°38'0 0.0
2019-Jun-08 08:00N 37°56' E 023°38'0 0.0
2019-Jun-08 07:30N 37°56' E 023°38'0 0.0
2019-Jun-08 07:00N 37°56' E 023°38'0 0.0
2019-Jun-08 06:30N 37°56' E 023°38'0 0.0
2019-Jun-08 05:54N 37°56' E 023°38'0 0.0
2019-Jun-08 05:30N 37°56' E 023°38'0 0.0
2019-Jun-08 05:00N 37°56' E 023°38'0 0.0
2019-Jun-08 04:30N 37°56' E 023°38'0 0.0
2019-Jun-08 04:00N 37°56' E 023°38'1 1.7
2019-Jun-08 03:30N 37°56' E 023°37'2 3.3
2019-Jun-08 03:00N 37°55' E 023°36'0 0.1
2019-Jun-08 02:30N 37°55' E 023°36'3 6.2
2019-Jun-08 02:00N 37°52' E 023°38'3 6.9
2019-Jun-08 01:30N 37°49' E 023°40'3 6.6
2019-Jun-08 01:00N 37°46' E 023°42'3 6.7
2019-Jun-08 00:30N 37°43' E 023°44'3 6.6
2019-Jun-08 00:00N 37°40' E 023°45'3 6.6
2019-Jun-07 23:30N 37°37' E 023°46'3 6.7
2019-Jun-07 23:00N 37°33' E 023°46'4 7.9
2019-Jun-07 22:30N 37°29' E 023°46'4 7.6
2019-Jun-07 22:00N 37°26' E 023°45'4 8.8
2019-Jun-07 21:30N 37°22' E 023°41'2410.0
2019-Jun-07 19:05N 37°09' E 023°16'111.6
2019-Jun-07 19:00N 37°09' E 023°15'811.5
2019-Jun-07 18:20N 37°09' E 023°05'411.7
2019-Jun-07 17:59N 37°12' E 023°02'611.6
2019-Jun-07 17:29N 37°17' E 022°58'1910.9
2019-Jun-07 15:44N 37°34' E 022°47'1 2.0
2019-Jun-07 15:25N 37°34' E 022°48'0 0.0
2019-Jun-07 14:58N 37°34' E 022°48'0 0.0
2019-Jun-07 14:25N 37°34' E 022°48'0 0.0
2019-Jun-07 13:55N 37°34' E 022°48'0 0.0
2019-Jun-07 13:28N 37°34' E 022°48'0 0.0
2019-Jun-07 12:58N 37°34' E 022°48'0 0.0
2019-Jun-07 12:28N 37°34' E 022°48'0 0.0
2019-Jun-07 11:58N 37°34' E 022°48'0 0.0
2019-Jun-07 11:28N 37°34' E 022°48'0 0.0
2019-Jun-07 10:52N 37°34' E 022°48'0 0.0
2019-Jun-07 10:28N 37°34' E 022°48'0 0.0
2019-Jun-07 09:58N 37°34' E 022°48'0 0.0
2019-Jun-07 09:28N 37°34' E 022°48'0 0.0
2019-Jun-07 08:58N 37°34' E 022°48'0 0.0
2019-Jun-07 08:25N 37°34' E 022°48'0 0.0
2019-Jun-07 07:58N 37°34' E 022°48'0 0.0
2019-Jun-07 07:22N 37°34' E 022°48'0 0.0
2019-Jun-07 06:58N 37°34' E 022°48'0 0.0
2019-Jun-07 06:28N 37°34' E 022°48'0 0.0
2019-Jun-07 05:58N 37°34' E 022°48'0 0.0
2019-Jun-07 05:30N 37°34' E 022°48'0 0.0
2019-Jun-07 05:00N 37°34' E 022°48'0 0.0
2019-Jun-07 04:30N 37°34' E 022°48'0 0.7
2019-Jun-07 03:58N 37°34' E 022°48'5 4.7
2019-Jun-07 02:52N 37°29' E 022°50'11 4.9
2019-Jun-07 00:37N 37°19' E 022°56'2 4.9
2019-Jun-07 00:16N 37°18' E 022°58'1 4.9
2019-Jun-07 00:01N 37°17' E 022°58'3 4.9
2019-Jun-06 23:24N 37°14' E 023°00'3 4.9
2019-Jun-06 22:50N 37°12' E 023°02'3 4.9
2019-Jun-06 22:18N 37°10' E 023°04'1 4.6
2019-Jun-06 22:01N 37°09' E 023°05'2 4.9
2019-Jun-06 21:30N 37°06' E 023°06'2 5.0
2019-Jun-06 21:00N 37°04' E 023°06'  
Track history (hours):
 
Tides and Currents Weather Stations Pressure Air Temp Water Temp Dewpoint Dewpoint Depression Visibility Wind Speed Wind Dir Waves Ship Positions

Wind Star

Operator: Holland America Line

Last reported at 2019-Jun-16 14:03 UTC. Time now 2019-Jun-16 15:02 UTC.
Position N 37°34' E 022°47'.

Length 134 m; draft 4.1 m.

Type: Ship. MMSI: 309163000.

Date/timePositionNaut miles runAvg speedWind from/ knotsBaromVisibWave heightAir tempDewpointWater temp
2019-Jun-16 14:03N 37°34' E 022°47'1 0.1
2019-Jun-16 04:17N 37°34' E 022°48'0 1.4
2019-Jun-16 03:59N 37°34' E 022°48'5 5.2
2019-Jun-16 02:59N 37°29' E 022°50'14 7.3
2019-Jun-16 01:06N 37°17' E 022°58'1 7.4
2019-Jun-16 00:56N 37°16' E 022°59'5 7.1
2019-Jun-16 00:16N 37°12' E 023°02'3 7.3
2019-Jun-15 23:52N 37°10' E 023°04'2 6.5
2019-Jun-15 23:30N 37°08' E 023°06'4 7.2
2019-Jun-15 23:00N 37°08' E 023°11'8 7.4
2019-Jun-15 21:59N 37°09' E 023°20'4 7.5
2019-Jun-15 21:25N 37°09' E 023°26'15 7.9
2019-Jun-15 19:32N 37°18' E 023°40'16 8.5
2019-Jun-15 17:42N 37°34' E 023°43'2 8.9
2019-Jun-15 17:30N 37°36' E 023°43'4 8.3
2019-Jun-15 17:00N 37°40' E 023°42'4 8.1
2019-Jun-15 16:30N 37°44' E 023°40'4 8.2
2019-Jun-15 16:00N 37°47' E 023°38'4 8.7
2019-Jun-15 15:30N 37°51' E 023°36'5 9.0
2019-Jun-15 15:00N 37°56' E 023°37'1 2.3
2019-Jun-15 14:29N 37°56' E 023°38'0 0.0
2019-Jun-15 13:59N 37°56' E 023°38'0 0.0
2019-Jun-15 13:29N 37°56' E 023°38'0 0.0
2019-Jun-15 12:59N 37°56' E 023°38'0 0.0
2019-Jun-15 12:26N 37°56' E 023°38'0 0.0
2019-Jun-15 11:59N 37°56' E 023°38'0 0.0
2019-Jun-15 11:29N 37°56' E 023°38'0 0.0
2019-Jun-15 10:59N 37°56' E 023°38'0 0.0
2019-Jun-15 10:29N 37°56' E 023°38'0 0.0
2019-Jun-15 09:59N 37°56' E 023°38'0 0.0
2019-Jun-15 09:29N 37°56' E 023°38'0 0.0
2019-Jun-15 08:56N 37°56' E 023°38'0 0.0
2019-Jun-15 08:29N 37°56' E 023°38'0 0.0
2019-Jun-15 07:59N 37°56' E 023°38'0 0.0
2019-Jun-15 07:23N 37°56' E 023°38'0 0.0
2019-Jun-15 06:59N 37°56' E 023°38'0 0.0
2019-Jun-15 06:30N 37°56' E 023°38'0 0.0
2019-Jun-15 06:00N 37°56' E 023°38'0 0.0
2019-Jun-15 05:30N 37°56' E 023°38'0 0.0
2019-Jun-15 05:00N 37°56' E 023°38'0 0.0
2019-Jun-15 04:30N 37°56' E 023°38'0 0.0
2019-Jun-15 04:00N 37°56' E 023°38'0 0.2
2019-Jun-15 03:31N 37°56' E 023°38'2 4.0
2019-Jun-15 03:00N 37°55' E 023°36'1 1.8
2019-Jun-15 02:30N 37°54' E 023°37'3 6.3
2019-Jun-15 02:00N 37°52' E 023°39'3 6.4
2019-Jun-15 01:30N 37°49' E 023°40'3 6.6
2019-Jun-15 01:00N 37°46' E 023°42'3 6.4
2019-Jun-15 00:30N 37°43' E 023°44'3 6.6
2019-Jun-15 00:00N 37°40' E 023°45'4 6.9
2019-Jun-14 23:29N 37°36' E 023°46'4 7.5
2019-Jun-14 23:00N 37°33' E 023°46'4 7.8
2019-Jun-14 22:30N 37°29' E 023°47'8 7.0
2019-Jun-14 21:22N 37°21' E 023°43'4 7.2
2019-Jun-14 20:52N 37°18' E 023°40'  
2019-Jun-10 17:45N 37°40' E 025°47'2 9.2
2019-Jun-10 17:30N 37°39' E 025°44'4 9.0
2019-Jun-10 17:00N 37°38' E 025°38'5 9.0
2019-Jun-10 16:30N 37°37' E 025°33'4 8.7
2019-Jun-10 16:00N 37°36' E 025°28'4 8.1
2019-Jun-10 15:30N 37°34' E 025°23'4 7.5
2019-Jun-10 15:00N 37°32' E 025°19'3 6.1
2019-Jun-10 14:30N 37°29' E 025°17'2 4.4
2019-Jun-10 13:58N 37°27' E 025°19'0 0.1
2019-Jun-10 13:28N 37°27' E 025°19'0 0.0
2019-Jun-10 12:58N 37°27' E 025°19'0 0.0
2019-Jun-10 12:28N 37°27' E 025°19'0 0.0
2019-Jun-10 11:58N 37°27' E 025°19'0 0.0
2019-Jun-10 11:28N 37°27' E 025°19'0 0.0
2019-Jun-10 10:55N 37°27' E 025°19'0 0.0
2019-Jun-10 10:28N 37°27' E 025°19'0 0.0
2019-Jun-10 09:58N 37°27' E 025°19'0 0.0
2019-Jun-10 09:28N 37°27' E 025°19'0 0.0
2019-Jun-10 08:58N 37°27' E 025°19'0 0.1
2019-Jun-10 08:28N 37°27' E 025°19'0 0.0
2019-Jun-10 07:58N 37°27' E 025°19'0 0.0
2019-Jun-10 07:28N 37°27' E 025°19'0 0.1
2019-Jun-10 06:55N 37°27' E 025°19'0 0.0
2019-Jun-10 06:25N 37°27' E 025°19'0 0.0
2019-Jun-10 05:58N 37°27' E 025°19'0 0.0
2019-Jun-10 05:28N 37°27' E 025°19'0 0.1
2019-Jun-10 04:58N 37°27' E 025°19'0 0.2
2019-Jun-10 04:30N 37°27' E 025°19'3 6.7
2019-Jun-10 04:00N 37°27' E 025°15'4 8.7
2019-Jun-10 03:30N 37°27' E 025°10'4 8.3
2019-Jun-10 03:00N 37°25' E 025°05'4 8.2
2019-Jun-10 02:30N 37°22' E 025°01'4 7.6
2019-Jun-10 02:00N 37°20' E 024°57'4 7.8
2019-Jun-10 01:30N 37°19' E 024°52'4 8.8
2019-Jun-10 01:00N 37°18' E 024°47'48 8.7
2019-Jun-09 19:27N 37°11' E 023°47'1810.4
2019-Jun-09 17:43N 37°10' E 023°24'811.3
2019-Jun-09 16:59N 37°10' E 023°14'1311.4
2019-Jun-09 15:52N 37°16' E 022°59'1610.2
2019-Jun-09 14:20N 37°29' E 022°50'510.4
2019-Jun-09 13:50N 37°34' E 022°47'0 0.1
2019-Jun-09 13:30N 37°34' E 022°47'0 0.0
2019-Jun-09 12:55N 37°34' E 022°47'0 0.0
2019-Jun-09 12:25N 37°34' E 022°47'0 0.0
2019-Jun-09 12:00N 37°34' E 022°47'0 0.0
2019-Jun-09 11:28N 37°34' E 022°47'0 0.1
2019-Jun-09 11:00N 37°34' E 022°47'0 0.0
2019-Jun-09 10:30N 37°34' E 022°47'0 0.0
2019-Jun-09 10:00N 37°34' E 022°47'0 0.0
2019-Jun-09 09:29N 37°34' E 022°47'0 0.0
2019-Jun-09 09:00N 37°34' E 022°47'0 0.0
2019-Jun-09 08:28N 37°34' E 022°47'0 0.0
2019-Jun-09 08:00N 37°34' E 022°47'0 0.0
2019-Jun-09 07:30N 37°34' E 022°47'0 0.0
2019-Jun-09 07:00N 37°34' E 022°47'0 0.0
2019-Jun-09 06:12N 37°34' E 022°47'0 0.0
2019-Jun-09 06:00N 37°34' E 022°47'0 0.0
2019-Jun-09 05:29N 37°34' E 022°47'0 0.0
2019-Jun-09 05:00N 37°34' E 022°47'5 2.8
2019-Jun-09 03:11N 37°29' E 022°50'14 6.7
2019-Jun-09 01:06N 37°17' E 022°58'1 6.6
2019-Jun-09 00:58N 37°16' E 022°59'3 6.7
2019-Jun-09 00:27N 37°13' E 023°01'5 6.6
2019-Jun-08 23:46N 37°09' E 023°04'2 6.0
2019-Jun-08 23:23N 37°08' E 023°06'3 6.7
2019-Jun-08 22:57N 37°08' E 023°10'3 7.3
2019-Jun-08 22:30N 37°09' E 023°14'5 7.6
2019-Jun-08 21:49N 37°09' E 023°20'2 7.5
2019-Jun-08 21:30N 37°09' E 023°23'6 7.6
2019-Jun-08 20:46N 37°10' E 023°30'11 7.1
2019-Jun-08 19:14N 37°18' E 023°40'3 7.3
2019-Jun-08 18:50N 37°20' E 023°42'8 7.6
2019-Jun-08 17:49N 37°28' E 023°42'2 7.7
2019-Jun-08 17:30N 37°30' E 023°43'4 7.8
2019-Jun-08 16:59N 37°34' E 023°43'4 8.9
2019-Jun-08 16:30N 37°39' E 023°43'4 8.9
2019-Jun-08 16:00N 37°43' E 023°41'4 8.8
2019-Jun-08 15:30N 37°47' E 023°38'4 8.9
2019-Jun-08 15:00N 37°51' E 023°37'4 8.5
2019-Jun-08 14:30N 37°55' E 023°36'2 4.0
2019-Jun-08 14:00N 37°56' E 023°38'0 0.0
2019-Jun-08 13:27N 37°56' E 023°38'0 0.0
2019-Jun-08 13:00N 37°56' E 023°38'0 0.0
2019-Jun-08 12:27N 37°56' E 023°38'0 0.0
2019-Jun-08 11:57N 37°56' E 023°38'0 0.0
2019-Jun-08 11:27N 37°56' E 023°38'0 0.0
2019-Jun-08 11:00N 37°56' E 023°38'0 0.0
2019-Jun-08 10:30N 37°56' E 023°38'0 0.0
2019-Jun-08 10:00N 37°56' E 023°38'0 0.0
2019-Jun-08 09:30N 37°56' E 023°38'0 0.0
2019-Jun-08 08:57N 37°56' E 023°38'0 0.0
2019-Jun-08 08:30N 37°56' E 023°38'0 0.0
2019-Jun-08 08:00N 37°56' E 023°38'0 0.0
2019-Jun-08 07:30N 37°56' E 023°38'0 0.0
2019-Jun-08 07:00N 37°56' E 023°38'0 0.0
2019-Jun-08 06:30N 37°56' E 023°38'0 0.0
2019-Jun-08 05:54N 37°56' E 023°38'0 0.0
2019-Jun-08 05:30N 37°56' E 023°38'0 0.0
2019-Jun-08 05:00N 37°56' E 023°38'0 0.0
2019-Jun-08 04:30N 37°56' E 023°38'0 0.0
2019-Jun-08 04:00N 37°56' E 023°38'1 1.7
2019-Jun-08 03:30N 37°56' E 023°37'2 3.3
2019-Jun-08 03:00N 37°55' E 023°36'0 0.1
2019-Jun-08 02:30N 37°55' E 023°36'3 6.2
2019-Jun-08 02:00N 37°52' E 023°38'3 6.9
2019-Jun-08 01:30N 37°49' E 023°40'3 6.6
2019-Jun-08 01:00N 37°46' E 023°42'3 6.7
2019-Jun-08 00:30N 37°43' E 023°44'3 6.6
2019-Jun-08 00:00N 37°40' E 023°45'3 6.6
2019-Jun-07 23:30N 37°37' E 023°46'3 6.7
2019-Jun-07 23:00N 37°33' E 023°46'4 7.9
2019-Jun-07 22:30N 37°29' E 023°46'4 7.6
2019-Jun-07 22:00N 37°26' E 023°45'4 8.8
2019-Jun-07 21:30N 37°22' E 023°41'2410.0
2019-Jun-07 19:05N 37°09' E 023°16'111.6
2019-Jun-07 19:00N 37°09' E 023°15'811.5
2019-Jun-07 18:20N 37°09' E 023°05'411.7
2019-Jun-07 17:59N 37°12' E 023°02'611.6
2019-Jun-07 17:29N 37°17' E 022°58'1910.9
2019-Jun-07 15:44N 37°34' E 022°47'1 2.0
2019-Jun-07 15:25N 37°34' E 022°48'0 0.0
2019-Jun-07 14:58N 37°34' E 022°48'0 0.0
2019-Jun-07 14:25N 37°34' E 022°48'0 0.0
2019-Jun-07 13:55N 37°34' E 022°48'0 0.0
2019-Jun-07 13:28N 37°34' E 022°48'0 0.0
2019-Jun-07 12:58N 37°34' E 022°48'0 0.0
2019-Jun-07 12:28N 37°34' E 022°48'0 0.0
2019-Jun-07 11:58N 37°34' E 022°48'0 0.0
2019-Jun-07 11:28N 37°34' E 022°48'0 0.0
2019-Jun-07 10:52N 37°34' E 022°48'0 0.0
2019-Jun-07 10:28N 37°34' E 022°48'0 0.0
2019-Jun-07 09:58N 37°34' E 022°48'0 0.0
2019-Jun-07 09:28N 37°34' E 022°48'0 0.0
2019-Jun-07 08:58N 37°34' E 022°48'0 0.0
2019-Jun-07 08:25N 37°34' E 022°48'0 0.0
2019-Jun-07 07:58N 37°34' E 022°48'0 0.0
2019-Jun-07 07:22N 37°34' E 022°48'0 0.0
2019-Jun-07 06:58N 37°34' E 022°48'0 0.0
2019-Jun-07 06:28N 37°34' E 022°48'0 0.0
2019-Jun-07 05:58N 37°34' E 022°48'0 0.0
2019-Jun-07 05:30N 37°34' E 022°48'0 0.0
2019-Jun-07 05:00N 37°34' E 022°48'0 0.0
2019-Jun-07 04:30N 37°34' E 022°48'0 0.7
2019-Jun-07 03:58N 37°34' E 022°48'5 4.7
2019-Jun-07 02:52N 37°29' E 022°50'11 4.9
2019-Jun-07 00:37N 37°19' E 022°56'2 4.9
2019-Jun-07 00:16N 37°18' E 022°58'1 4.9
2019-Jun-07 00:01N 37°17' E 022°58'3 4.9
2019-Jun-06 23:24N 37°14' E 023°00'3 4.9
2019-Jun-06 22:50N 37°12' E 023°02'3 4.9
2019-Jun-06 22:18N 37°10' E 023°04'1 4.6
2019-Jun-06 22:01N 37°09' E 023°05'2 4.9
2019-Jun-06 21:30N 37°06' E 023°06'2 5.0
2019-Jun-06 21:00N 37°04' E 023°06'  

Dump ship's entire track history